Time;durP1;ratioP1;P1;durP2;ratioP2;P2;SDS_P1;SDS_P2;PMS_P1;PMS_P2;Temp;Humidity;BMP_temperature;BMP_pressure;BME280_temperature;BME280_humidity;BME280_pressure;Samples;Min_cycle;Max_cycle;Signal;HPM_P1;HPM_P2
2023/05/13 00:00:11;;;;;;;7.13;6.43;;;11.70;99.90;;;;;;5067348;28;20051;-79
2023/05/13 00:02:36;;;;;;;8.07;7.25;;;11.70;99.90;;;;;;5087985;28;20055;-79
2023/05/13 00:05:02;;;;;;;7.75;6.95;;;11.70;99.90;;;;;;5088058;28;20047;-79
2023/05/13 00:07:27;;;;;;;7.57;6.60;;;11.60;99.90;;;;;;5088248;28;20105;-79
2023/05/13 00:09:53;;;;;;;9.25;7.35;;;11.60;99.90;;;;;;5088081;28;20101;-79
2023/05/13 00:12:19;;;;;;;9.32;6.65;;;11.80;99.90;;;;;;5087524;28;20047;-79
2023/05/13 00:14:45;;;;;;;12.23;7.20;;;11.50;99.90;;;;;;5068959;28;20071;-80
2023/05/13 00:17:10;;;;;;;7.72;7.03;;;11.50;99.90;;;;;;5067366;28;20135;-80
2023/05/13 00:19:36;;;;;;;8.02;7.28;;;11.50;99.90;;;;;;5049583;28;20102;-79
2023/05/13 00:22:01;;;;;;;8.02;7.22;;;10.90;99.90;;;;;;5066814;28;20040;-79
2023/05/13 00:24:27;;;;;;;8.60;7.15;;;11.40;99.90;;;;;;5087291;28;20093;-79
2023/05/13 00:26:53;;;;;;;11.05;7.90;;;11.40;99.90;;;;;;5069519;28;20051;-79
2023/05/13 00:29:18;;;;;;;8.13;7.38;;;11.40;99.90;;;;;;5087581;28;20123;-79
2023/05/13 00:31:44;;;;;;;10.75;7.50;;;11.40;99.90;;;;;;5086243;28;20040;-79
2023/05/13 00:34:10;;;;;;;8.23;7.35;;;11.40;99.90;;;;;;5084499;28;20420;-79
2023/05/13 00:36:35;;;;;;;8.70;7.80;;;11.30;99.90;;;;;;5091889;28;20044;-79
2023/05/13 00:39:01;;;;;;;8.93;7.82;;;11.30;99.90;;;;;;5054252;28;20052;-79
2023/05/13 00:41:26;;;;;;;10.40;8.25;;;11.30;99.90;;;;;;5053420;28;20048;-79
2023/05/13 00:43:55;;;;;;;12.90;7.72;;;11.30;99.90;;;;;;5070807;28;20407;-79
2023/05/13 00:46:22;;;;;;;10.27;8.35;;;11.30;99.90;;;;;;5070012;28;20399;-79
2023/05/13 00:48:48;;;;;;;13.45;8.25;;;11.20;99.90;;;;;;5091812;28;20068;-79
2023/05/13 00:51:14;;;;;;;9.07;8.18;;;11.20;99.90;;;;;;5073190;28;20048;-79
2023/05/13 00:53:41;;;;;;;9.23;8.35;;;11.20;99.90;;;;;;5086827;28;20052;-79
2023/05/13 00:56:07;;;;;;;9.45;8.52;;;11.20;99.90;;;;;;5053189;28;20044;-79
2023/05/13 00:58:33;;;;;;;8.65;7.45;;;11.10;99.90;;;;;;5070543;28;20753;-79
2023/05/13 01:01:07;;;;;;;9.45;8.20;;;11.10;99.90;;;;;;5078185;28;20051;-79
2023/05/13 01:03:39;;;;;;;12.15;8.43;;;11.10;99.90;;;;;;5056249;28;20044;-79
2023/05/13 01:06:12;;;;;;;10.23;8.10;;;11.10;99.90;;;;;;5070925;28;20048;-79
2023/05/13 01:09:10;;;;;;;14.55;8.15;;;11.10;99.90;;;;;;5071978;28;20135;-80
2023/05/13 01:11:40;;;;;;;9.55;8.52;;;11.10;99.90;;;;;;5073347;28;20494;-79
2023/05/13 01:14:13;;;;;;;9.85;8.18;;;11.10;99.90;;;;;;5090348;28;20074;-79
2023/05/13 01:16:48;;;;;;;10.10;8.50;;;11.00;99.90;;;;;;5090423;28;20066;-79
2023/05/13 01:19:40;;;;;;;10.88;8.43;;;11.00;99.90;;;;;;5071426;28;20044;-79
2023/05/13 01:22:06;;;;;;;9.27;8.37;;;11.00;99.90;;;;;;5066060;28;20091;-79
2023/05/13 01:24:32;;;;;;;9.10;8.20;;;10.90;99.90;;;;;;5089125;28;20106;-79
2023/05/13 01:26:58;;;;;;;10.73;8.38;;;10.90;99.90;;;;;;5071276;28;20036;-79
2023/05/13 01:29:24;;;;;;;12.18;8.63;;;10.90;99.90;;;;;;5090468;28;20127;-79
2023/05/13 01:31:50;;;;;;;10.20;9.15;;;10.90;99.90;;;;;;5071655;28;20127;-79
2023/05/13 01:34:19;;;;;;;10.43;9.00;;;10.90;99.90;;;;;;5090282;28;20051;-79
2023/05/13 01:36:44;;;;;;;10.32;9.25;;;10.90;99.90;;;;;;5072993;28;20044;-79
2023/05/13 01:39:12;;;;;;;9.65;8.65;;;10.90;99.90;;;;;;5088976;28;20066;-79
2023/05/13 01:41:37;;;;;;;9.70;8.73;;;10.90;99.90;;;;;;5090633;28;20044;-79
2023/05/13 01:44:03;;;;;;;11.25;8.77;;;10.80;99.90;;;;;;5089632;28;20051;-79
2023/05/13 01:46:29;;;;;;;10.43;8.50;;;10.90;99.90;;;;;;5071902;28;20083;-79
2023/05/13 01:48:54;;;;;;;10.38;9.05;;;10.80;99.90;;;;;;5088164;28;20063;-79
2023/05/13 01:51:20;;;;;;;11.45;8.98;;;10.80;99.90;;;;;;5090261;28;20368;-79
2023/05/13 01:53:46;;;;;;;9.82;8.70;;;10.80;99.90;;;;;;5089704;28;20074;-79
2023/05/13 01:56:11;;;;;;;10.77;9.20;;;10.80;99.90;;;;;;5089630;28;20398;-79
2023/05/13 01:58:37;;;;;;;9.25;8.27;;;10.80;99.90;;;;;;5071882;28;20410;-79
2023/05/13 02:01:02;;;;;;;10.32;8.75;;;10.70;99.90;;;;;;5072577;28;20048;-79
2023/05/13 02:03:28;;;;;;;10.90;8.20;;;10.70;99.90;;;;;;5088546;28;20044;-79
2023/05/13 02:05:54;;;;;;;11.25;8.68;;;10.70;99.90;;;;;;5089137;28;20040;-79
2023/05/13 02:08:24;;;;;;;10.48;9.25;;;10.60;99.90;;;;;;5071439;28;20086;-80
2023/05/13 02:10:59;;;;;;;9.95;8.90;;;10.60;99.90;;;;;;5089922;28;20105;-79
2023/05/13 02:13:25;;;;;;;13.25;8.95;;;10.60;99.90;;;;;;5071544;28;20491;-80
2023/05/13 02:15:52;;;;;;;9.77;8.73;;;10.60;99.90;;;;;;5089470;28;20052;-79
2023/05/13 02:18:18;;;;;;;10.50;9.10;;;10.50;99.90;;;;;;5089792;28;20077;-79
2023/05/13 02:20:44;;;;;;;10.73;9.02;;;10.50;99.90;;;;;;5071349;28;20055;-79
2023/05/13 02:23:10;;;;;;;11.30;9.20;;;10.50;99.90;;;;;;5087870;28;20528;-79
2023/05/13 02:25:36;;;;;;;13.82;9.60;;;10.50;99.90;;;;;;5089788;28;20115;-79
2023/05/13 02:28:01;;;;;;;11.57;9.38;;;10.50;99.90;;;;;;5070510;28;20398;-80
2023/05/13 02:30:27;;;;;;;10.65;9.30;;;10.50;99.90;;;;;;5071138;28;20126;-79
2023/05/13 02:32:54;;;;;;;11.40;9.50;;;10.40;99.90;;;;;;5088541;28;20517;-79
2023/05/13 02:35:21;;;;;;;12.10;8.98;;;10.40;99.90;;;;;;5070534;28;20410;-79
2023/05/13 02:37:47;;;;;;;10.55;8.55;;;10.40;99.90;;;;;;5087809;28;20032;-79
2023/05/13 02:40:13;;;;;;;13.50;9.27;;;10.30;99.90;;;;;;5089645;28;20095;-79
2023/05/13 02:42:39;;;;;;;11.43;9.80;;;10.30;99.90;;;;;;5088601;28;20048;-79
2023/05/13 02:45:05;;;;;;;10.05;9.05;;;10.30;99.90;;;;;;5087407;28;20040;-79
2023/05/13 02:47:30;;;;;;;9.88;8.85;;;10.30;99.90;;;;;;5068242;28;20082;-79
2023/05/13 02:49:56;;;;;;;10.38;9.35;;;10.20;99.90;;;;;;5053852;28;20081;-79
2023/05/13 02:52:22;;;;;;;9.98;8.77;;;10.20;99.90;;;;;;5088047;28;20048;-79
2023/05/13 02:54:47;;;;;;;13.02;9.52;;;10.20;99.90;;;;;;5070592;28;20039;-79
2023/05/13 02:57:13;;;;;;;10.90;9.07;;;10.20;99.90;;;;;;5070218;28;20044;-79
2023/05/13 02:59:38;;;;;;;11.18;9.98;;;10.10;99.90;;;;;;5087671;28;20458;-80
2023/05/13 03:02:04;;;;;;;11.55;10.07;;;10.20;99.90;;;;;;5088369;28;20163;-79
2023/05/13 03:04:30;;;;;;;11.90;10.15;;;10.10;99.90;;;;;;5070500;28;20043;-80
2023/05/13 03:06:55;;;;;;;18.20;10.55;;;10.10;99.90;;;;;;5088745;28;20040;-79
2023/05/13 03:09:21;;;;;;;12.32;9.18;;;10.10;99.90;;;;;;5087534;28;20064;-79
2023/05/13 03:11:47;;;;;;;11.02;9.43;;;10.10;99.90;;;;;;5070155;28;20079;-79
2023/05/13 03:14:13;;;;;;;12.43;10.05;;;10.00;99.90;;;;;;5070223;28;20040;-79
2023/05/13 03:16:38;;;;;;;10.93;9.77;;;10.00;99.90;;;;;;5069682;28;20044;-79
2023/05/13 03:19:04;;;;;;;12.13;10.23;;;10.00;99.90;;;;;;5069104;28;20059;-79
2023/05/13 03:21:30;;;;;;;12.70;10.48;;;10.00;99.90;;;;;;5070072;28;20040;-79
2023/05/13 03:23:55;;;;;;;12.93;10.20;;;10.00;99.90;;;;;;5087116;28;20472;-79
2023/05/13 03:26:21;;;;;;;10.82;9.70;;;10.00;99.90;;;;;;5070110;28;20071;-79
2023/05/13 03:28:46;;;;;;;12.75;10.02;;;9.90;99.90;;;;;;5069683;28;20040;-79
2023/05/13 03:31:12;;;;;;;11.65;10.52;;;9.90;99.90;;;;;;5069810;28;20047;-79
2023/05/13 03:33:38;;;;;;;13.73;10.38;;;9.90;99.90;;;;;;5069289;28;20112;-79
2023/05/13 03:36:06;;;;;;;12.23;10.30;;;9.90;99.90;;;;;;5069336;28;20114;-79
2023/05/13 03:38:32;;;;;;;11.65;10.50;;;9.90;99.90;;;;;;5069733;28;20181;-79
2023/05/13 03:40:58;;;;;;;13.60;10.43;;;9.90;99.90;;;;;;5069325;28;20040;-79
2023/05/13 03:43:24;;;;;;;14.00;10.95;;;9.80;99.90;;;;;;5088422;28;20481;-79
2023/05/13 03:45:50;;;;;;;12.40;11.10;;;10.10;99.90;;;;;;5070142;28;20054;-79
2023/05/13 03:48:16;;;;;;;12.50;11.18;;;9.90;99.90;;;;;;5088255;28;20052;-80
2023/05/13 03:50:41;;;;;;;12.38;10.73;;;9.90;99.90;;;;;;5088194;28;20084;-80
2023/05/13 03:53:07;;;;;;;14.90;11.32;;;9.90;99.90;;;;;;5068755;28;20514;-79
2023/05/13 03:55:33;;;;;;;18.52;10.85;;;9.90;99.90;;;;;;5087567;28;20051;-79
2023/05/13 03:57:58;;;;;;;13.50;11.68;;;9.90;99.90;;;;;;5069689;28;20048;-79
2023/05/13 04:00:24;;;;;;;12.43;10.98;;;9.90;99.90;;;;;;5087041;28;20047;-79
2023/05/13 04:02:49;;;;;;;12.38;11.05;;;9.90;99.90;;;;;;5069491;28;20044;-79
2023/05/13 04:05:16;;;;;;;14.50;12.20;;;9.90;99.90;;;;;;5067299;28;20553;-79
2023/05/13 04:07:42;;;;;;;13.57;10.93;;;10.00;99.90;;;;;;5087367;28;20048;-79
2023/05/13 04:10:09;;;;;;;12.68;11.32;;;9.90;99.90;;;;;;5086944;28;20055;-79
2023/05/13 04:12:34;;;;;;;15.50;11.63;;;9.90;99.90;;;;;;5087724;28;20063;-79
2023/05/13 04:15:00;;;;;;;14.50;11.90;;;9.90;99.90;;;;;;5087708;28;20036;-80
2023/05/13 04:17:26;;;;;;;12.68;11.32;;;10.00;99.90;;;;;;5069599;28;20051;-80
2023/05/13 04:19:52;;;;;;;13.15;11.38;;;9.90;99.90;;;;;;5088027;28;20052;-80
2023/05/13 04:22:18;;;;;;;13.25;11.90;;;9.90;99.90;;;;;;5087690;28;20051;-79
2023/05/13 04:24:43;;;;;;;15.15;12.38;;;9.90;99.90;;;;;;5085925;28;20452;-79
2023/05/13 04:27:09;;;;;;;16.95;12.10;;;9.90;99.90;;;;;;5086413;28;20486;-79
2023/05/13 04:29:34;;;;;;;15.40;12.23;;;9.90;99.90;;;;;;5068262;28;20079;-79
2023/05/13 04:32:00;;;;;;;14.63;11.80;;;10.00;99.90;;;;;;5069737;28;20097;-79
2023/05/13 04:34:25;;;;;;;13.95;11.80;;;10.00;99.90;;;;;;5068917;28;20055;-79
2023/05/13 04:36:51;;;;;;;17.08;12.27;;;10.00;99.90;;;;;;5068505;28;20048;-79
2023/05/13 04:39:17;;;;;;;13.60;12.18;;;10.10;99.90;;;;;;5068929;28;20048;-79
2023/05/13 04:41:42;;;;;;;14.65;12.02;;;10.10;99.90;;;;;;5052617;28;20043;-79
2023/05/13 04:44:08;;;;;;;13.90;12.30;;;10.10;99.90;;;;;;5086833;28;20444;-79
2023/05/13 04:46:34;;;;;;;14.52;12.35;;;10.20;99.90;;;;;;5081172;28;20056;-79
2023/05/13 04:48:59;;;;;;;16.17;12.57;;;10.80;99.90;;;;;;5064533;28;20475;-80
2023/05/13 04:51:25;;;;;;;16.05;12.02;;;10.20;99.90;;;;;;5087340;28;20138;-79
2023/05/13 04:53:51;;;;;;;13.65;11.65;;;10.30;99.90;;;;;;5068662;28;20102;-79
2023/05/13 04:56:16;;;;;;;13.40;11.98;;;10.30;99.90;;;;;;5087371;28;20044;-79
2023/05/13 04:58:42;;;;;;;14.00;11.75;;;10.40;99.90;;;;;;5068948;28;20083;-79
2023/05/13 05:01:08;;;;;;;15.20;11.77;;;10.50;99.90;;;;;;5067817;28;20044;-79
2023/05/13 05:03:33;;;;;;;14.15;12.30;;;10.50;99.90;;;;;;5069088;28;20071;-79
2023/05/13 05:05:59;;;;;;;12.35;11.10;;;10.50;99.90;;;;;;5085733;28;20068;-79
2023/05/13 05:08:24;;;;;;;13.80;12.27;;;10.60;99.90;;;;;;5086919;28;20048;-80
2023/05/13 05:10:58;;;;;;;14.70;11.98;;;10.60;99.90;;;;;;5087236;28;20107;-80
2023/05/13 05:13:24;;;;;;;12.90;11.45;;;10.70;99.90;;;;;;5086722;28;20048;-80
2023/05/13 05:15:50;;;;;;;14.48;11.55;;;10.80;99.90;;;;;;5068922;28;20040;-79
2023/05/13 05:18:15;;;;;;;15.60;11.65;;;10.70;99.90;;;;;;5085745;28;20119;-80
2023/05/13 05:20:41;;;;;;;16.70;11.60;;;10.70;99.90;;;;;;5091155;28;20378;-79
2023/05/13 05:23:09;;;;;;;14.15;11.70;;;10.90;99.90;;;;;;5079139;28;20083;-79
2023/05/13 05:25:35;;;;;;;14.18;10.90;;;11.00;99.90;;;;;;5053636;28;20135;-79
2023/05/13 05:28:03;;;;;;;14.60;11.55;;;11.10;99.90;;;;;;5088922;28;20119;-80
2023/05/13 05:30:31;;;;;;;14.25;10.95;;;11.20;99.90;;;;;;5066809;28;20055;-81
2023/05/13 05:32:58;;;;;;;12.23;10.93;;;11.30;99.90;;;;;;5093517;28;20090;-81
2023/05/13 05:35:23;;;;;;;16.77;11.73;;;11.60;99.90;;;;;;5072491;28;20043;-81
2023/05/13 05:37:49;;;;;;;12.82;11.45;;;11.80;99.90;;;;;;5084534;28;20037;-80
2023/05/13 05:40:14;;;;;;;14.07;12.57;;;12.10;99.90;;;;;;5067833;28;20067;-81
2023/05/13 05:42:40;;;;;;;13.40;11.52;;;12.80;99.90;;;;;;5086396;28;20044;-80
2023/05/13 05:45:06;;;;;;;13.75;10.90;;;13.70;99.90;;;;;;5105814;28;20078;-80
2023/05/13 05:47:32;;;;;;;15.35;11.48;;;14.10;99.90;;;;;;5068955;28;20044;-80
2023/05/13 05:49:57;;;;;;;11.82;10.63;;;14.00;99.90;;;;;;5070861;28;20113;-80
2023/05/13 05:52:23;;;;;;;12.80;11.43;;;14.00;99.90;;;;;;5071518;28;20156;-79
2023/05/13 05:54:48;;;;;;;11.32;10.18;;;13.50;99.90;;;;;;5071783;28;20464;-80
2023/05/13 05:57:14;;;;;;;12.82;11.07;;;13.40;99.90;;;;;;5071541;28;20046;-81
2023/05/13 05:59:39;;;;;;;12.80;11.45;;;13.40;99.90;;;;;;5090193;28;20040;-80
2023/05/13 06:02:06;;;;;;;12.02;10.75;;;14.60;99.90;;;;;;5070494;28;20040;-81
2023/05/13 06:04:32;;;;;;;12.30;10.98;;;15.60;99.90;;;;;;5070575;28;20104;-80
2023/05/13 06:06:57;;;;;;;12.90;11.00;;;16.00;99.90;;;;;;5071505;28;20047;-80
2023/05/13 06:09:23;;;;;;;12.43;11.15;;;16.80;99.90;;;;;;5071700;28;20050;-81
2023/05/13 06:11:48;;;;;;;12.45;10.55;;;17.60;99.90;;;;;;5069815;28;20348;-80
2023/05/13 06:14:15;;;;;;;10.93;9.82;;;17.70;99.90;;;;;;5057452;28;20076;-80
2023/05/13 06:16:41;;;;;;;11.32;10.23;;;18.10;99.90;;;;;;5067984;28;20052;-80
2023/05/13 06:19:06;;;;;;;11.45;10.20;;;18.40;99.90;;;;;;5069341;28;20097;-81
2023/05/13 06:21:33;;;;;;;11.23;9.63;;;18.10;99.90;;;;;;5087687;28;20040;-81
2023/05/13 06:23:59;;;;;;;12.95;9.98;;;17.20;99.90;;;;;;5069829;28;20071;-81
2023/05/13 06:26:25;;;;;;;10.52;9.07;;;16.40;99.90;;;;;;5070680;28;20405;-80
2023/05/13 06:28:50;;;;;;;12.80;9.77;;;15.70;99.90;;;;;;5084973;28;20119;-79
2023/05/13 06:31:16;;;;;;;10.50;9.40;;;15.40;99.90;;;;;;5088919;28;20051;-80
2023/05/13 06:33:42;;;;;;;10.93;9.45;;;15.10;99.90;;;;;;5064595;28;20143;-79
2023/05/13 06:36:08;;;;;;;10.10;9.05;;;14.90;99.90;;;;;;5070897;28;20050;-79
2023/05/13 06:38:34;;;;;;;10.63;9.18;;;14.80;99.90;;;;;;5087852;28;20494;-79
2023/05/13 06:40:59;;;;;;;9.85;8.90;;;14.80;99.90;;;;;;5089498;28;20047;-80
2023/05/13 06:43:25;;;;;;;10.45;9.05;;;14.70;99.90;;;;;;5088011;28;20427;-80
2023/05/13 06:45:51;;;;;;;10.95;9.30;;;14.80;99.90;;;;;;5071244;28;20059;-79
2023/05/13 06:48:16;;;;;;;10.30;9.40;;;14.90;99.90;;;;;;5069867;28;20143;-80
2023/05/13 06:50:42;;;;;;;10.05;9.07;;;14.90;99.90;;;;;;5070186;28;20068;-79
2023/05/13 06:53:10;;;;;;;11.07;9.27;;;15.10;99.90;;;;;;5068655;28;20087;-78
2023/05/13 06:55:40;;;;;;;12.00;9.27;;;15.20;99.90;;;;;;5087141;28;20052;-78
2023/05/13 06:58:07;;;;;;;9.27;8.13;;;15.40;99.90;;;;;;5087749;28;20135;-79
2023/05/13 07:00:36;;;;;;;9.90;8.73;;;15.40;99.90;;;;;;5070433;28;20110;-79
2023/05/13 07:03:02;;;;;;;10.07;8.57;;;15.50;99.90;;;;;;5070045;28;20048;-79
2023/05/13 07:05:28;;;;;;;12.15;8.57;;;15.70;99.90;;;;;;5070570;28;20096;-79
2023/05/13 07:07:53;;;;;;;12.40;8.80;;;15.60;99.90;;;;;;5088187;28;20044;-80
2023/05/13 07:10:19;;;;;;;10.73;8.35;;;15.70;99.90;;;;;;5088746;28;20070;-79
2023/05/13 07:12:45;;;;;;;9.05;8.15;;;15.80;99.90;;;;;;5087072;28;20052;-79
2023/05/13 07:15:10;;;;;;;9.27;8.30;;;15.90;99.90;;;;;;5053470;28;20040;-79
2023/05/13 07:17:36;;;;;;;9.05;8.15;;;16.10;99.90;;;;;;5070258;28;20210;-80
2023/05/13 07:20:01;;;;;;;10.95;8.73;;;16.20;99.90;;;;;;5088383;28;20040;-80
2023/05/13 07:22:27;;;;;;;10.18;8.20;;;16.30;99.90;;;;;;5088367;28;20527;-79
2023/05/13 07:24:53;;;;;;;11.25;8.10;;;16.70;99.90;;;;;;5069507;28;20122;-79
2023/05/13 07:27:20;;;;;;;11.07;8.43;;;16.50;99.90;;;;;;5068882;28;20401;-80
2023/05/13 07:29:46;;;;;;;13.40;8.35;;;16.50;99.90;;;;;;5082804;28;20051;-79
2023/05/13 07:32:11;;;;;;;9.18;7.93;;;16.60;99.90;;;;;;5090379;28;20047;-80
2023/05/13 07:34:37;;;;;;;10.95;8.80;;;16.60;99.90;;;;;;5108427;28;20695;-80
2023/05/13 07:37:03;;;;;;;8.65;7.75;;;16.60;99.90;;;;;;5108151;28;20475;-79
2023/05/13 07:39:29;;;;;;;13.55;8.45;;;16.70;99.90;;;;;;5107524;28;20050;-79
2023/05/13 07:41:54;;;;;;;7.80;7.10;;;16.90;99.90;;;;;;5097017;28;20394;-78
2023/05/13 07:44:20;;;;;;;8.30;7.50;;;17.10;99.90;;;;;;5087882;28;20079;-79
2023/05/13 07:46:47;;;;;;;10.50;8.18;;;17.30;99.90;;;;;;5087155;28;20055;-79
2023/05/13 07:49:13;;;;;;;8.30;7.50;;;17.50;99.90;;;;;;5069306;28;20047;-79
2023/05/13 07:51:39;;;;;;;10.95;7.15;;;17.70;99.90;;;;;;5087742;28;20040;-79
2023/05/13 07:54:04;;;;;;;9.00;7.00;;;18.20;99.90;;;;;;5086721;28;20418;-79
2023/05/13 07:56:30;;;;;;;8.48;7.10;;;18.00;99.90;;;;;;5087943;28;20093;-78
2023/05/13 07:58:56;;;;;;;6.85;6.25;;;18.20;99.90;;;;;;5068744;28;20431;-77
2023/05/13 08:01:22;;;;;;;10.43;7.10;;;18.20;99.90;;;;;;5067674;28;20043;-79
2023/05/13 08:03:48;;;;;;;7.65;6.90;;;18.30;99.90;;;;;;5087319;28;20052;-79
2023/05/13 08:06:13;;;;;;;7.47;6.55;;;18.40;99.90;;;;;;5069625;28;20044;-79
2023/05/13 08:08:39;;;;;;;7.15;5.95;;;18.50;99.90;;;;;;5087194;28;20033;-78
2023/05/13 08:11:04;;;;;;;8.93;7.22;;;18.60;99.90;;;;;;5087797;28;20032;-79
2023/05/13 08:13:30;;;;;;;7.20;6.50;;;18.60;99.90;;;;;;5069479;28;20044;-78
2023/05/13 08:16:00;;;;;;;7.55;6.07;;;18.50;99.90;;;;;;5069697;28;20124;-79
2023/05/13 08:18:26;;;;;;;8.23;6.40;;;18.50;99.90;;;;;;5065500;28;20058;-79
2023/05/13 08:20:52;;;;;;;7.35;5.90;;;18.60;99.90;;;;;;5085980;28;20048;-79
2023/05/13 08:23:17;;;;;;;6.97;6.28;;;18.70;99.90;;;;;;5067893;28;20402;-79
2023/05/13 08:25:43;;;;;;;10.13;6.18;;;18.90;99.90;;;;;;5086454;28;20040;-80
2023/05/13 08:28:08;;;;;;;10.27;6.13;;;19.10;99.90;;;;;;5086506;28;20051;-79
2023/05/13 08:30:34;;;;;;;7.88;5.95;;;19.00;99.90;;;;;;5068962;28;20047;-79
2023/05/13 08:32:59;;;;;;;6.80;5.63;;;19.00;99.50;;;;;;5086369;28;20036;-79
2023/05/13 08:35:25;;;;;;;7.82;6.20;;;19.20;98.90;;;;;;5085478;28;20048;-79
2023/05/13 08:37:51;;;;;;;6.75;5.88;;;19.20;97.60;;;;;;5074061;28;20155;-79
2023/05/13 08:40:17;;;;;;;6.43;5.80;;;19.30;96.80;;;;;;5067257;28;20094;-79
2023/05/13 08:42:46;;;;;;;6.82;5.60;;;19.50;96.60;;;;;;5067306;28;20464;-79
2023/05/13 08:45:12;;;;;;;7.97;6.05;;;19.50;95.80;;;;;;5069016;28;20120;-79
2023/05/13 08:47:54;;;;;;;7.18;6.45;;;19.70;95.40;;;;;;5087367;28;20109;-77
2023/05/13 08:50:21;;;;;;;6.68;5.43;;;19.80;93.90;;;;;;5051690;28;20048;-76
2023/05/13 08:52:49;;;;;;;6.55;5.70;;;19.90;94.60;;;;;;5088398;28;20048;-76
2023/05/13 08:55:14;;;;;;;8.57;5.70;;;19.90;94.20;;;;;;5091257;28;20036;-77
2023/05/13 08:57:40;;;;;;;9.88;6.05;;;20.00;93.90;;;;;;5056568;28;20052;-77
2023/05/13 09:00:08;;;;;;;7.18;6.10;;;20.10;93.50;;;;;;5090063;28;20040;-76
2023/05/13 09:02:33;;;;;;;6.25;5.57;;;20.10;92.80;;;;;;5072388;28;20036;-78
2023/05/13 09:05:06;;;;;;;7.13;6.50;;;20.20;92.70;;;;;;5090188;28;20362;-78
2023/05/13 09:07:32;;;;;;;12.23;7.15;;;20.20;91.20;;;;;;5090576;28;20044;-78
2023/05/13 09:09:58;;;;;;;7.68;5.40;;;20.20;91.70;;;;;;5081237;28;20430;-77
2023/05/13 09:12:44;;;;;;;6.20;4.93;;;20.30;91.80;;;;;;5070223;28;20056;-79
2023/05/13 09:15:12;;;;;;;6.30;4.97;;;20.50;88.20;;;;;;5078682;28;20055;-79
2023/05/13 09:17:41;;;;;;;5.45;4.95;;;20.50;87.90;;;;;;5090451;28;20490;-79
2023/05/13 09:20:08;;;;;;;6.18;4.32;;;20.40;86.50;;;;;;5090960;28;20057;-78
2023/05/13 09:22:33;;;;;;;7.00;4.68;;;20.50;86.20;;;;;;5072715;28;20044;-78
2023/05/13 09:24:59;;;;;;;6.28;4.45;;;20.60;83.90;;;;;;5090061;28;20047;-79
2023/05/13 09:27:46;;;;;;;6.03;4.70;;;20.70;83.70;;;;;;5071497;28;20044;-79
2023/05/13 09:30:13;;;;;;;4.50;3.90;;;20.70;79.50;;;;;;5089223;28;20478;-79
2023/05/13 09:32:39;;;;;;;5.60;4.00;;;20.80;78.90;;;;;;5090364;28;20040;-79
2023/05/13 09:35:11;;;;;;;4.55;3.90;;;20.90;76.90;;;;;;5071966;28;20351;-79
2023/05/13 09:37:37;;;;;;;5.40;3.77;;;20.90;72.40;;;;;;5072897;28;20062;-79
2023/05/13 09:40:03;;;;;;;7.03;3.90;;;21.00;75.30;;;;;;5090255;28;20047;-79
2023/05/13 09:42:31;;;;;;;4.53;3.90;;;21.10;74.40;;;;;;5070357;28;20059;-79
2023/05/13 09:45:04;;;;;;;6.38;3.80;;;21.30;71.90;;;;;;5089243;28;20548;-79
2023/05/13 09:47:29;;;;;;;5.18;3.80;;;21.20;65.60;;;;;;5090729;28;20138;-78
2023/05/13 09:49:56;;;;;;;4.75;3.58;;;21.30;68.10;;;;;;5089629;28;20174;-79
2023/05/13 09:52:22;;;;;;;5.18;3.78;;;21.30;61.60;;;;;;5070537;28;20040;-79
2023/05/13 09:54:47;;;;;;;6.80;3.72;;;21.40;67.00;;;;;;5071140;28;20036;-80
2023/05/13 09:57:13;;;;;;;5.05;3.47;;;21.50;66.10;;;;;;5070330;28;20170;-78
2023/05/13 09:59:40;;;;;;;6.55;3.17;;;21.70;64.90;;;;;;5070021;28;20055;-79
2023/05/13 10:02:06;;;;;;;4.65;3.47;;;21.70;62.80;;;;;;5069926;28;20041;-79
2023/05/13 10:04:32;;;;;;;6.07;3.17;;;21.80;62.60;;;;;;5069049;28;20045;-78
2023/05/13 10:07:00;;;;;;;4.55;3.28;;;21.80;62.50;;;;;;5082045;28;20055;-79
2023/05/13 10:09:29;;;;;;;7.15;3.17;;;21.70;61.10;;;;;;5089140;28;20036;-78
2023/05/13 10:11:55;;;;;;;4.15;3.60;;;21.80;62.20;;;;;;5088969;28;20458;-79
2023/05/13 10:14:21;;;;;;;4.53;3.50;;;21.80;61.20;;;;;;5088527;28;20058;-78
2023/05/13 10:16:48;;;;;;;4.68;3.28;;;21.90;61.10;;;;;;5090208;28;20051;-78
2023/05/13 10:19:14;;;;;;;3.22;2.92;;;21.90;60.40;;;;;;5094188;28;20096;-78
2023/05/13 10:21:40;;;;;;;3.72;3.33;;;21.80;59.50;;;;;;5088721;28;20461;-78
2023/05/13 10:24:07;;;;;;;6.32;3.42;;;21.90;59.30;;;;;;5059610;28;20067;-78
2023/05/13 10:26:33;;;;;;;4.38;3.50;;;22.00;59.40;;;;;;5087183;28;20470;-78
2023/05/13 10:29:00;;;;;;;3.85;2.95;;;22.10;59.20;;;;;;5066059;28;20475;-77
2023/05/13 10:31:27;;;;;;;10.55;3.63;;;22.20;59.00;;;;;;5086034;28;20040;-77
2023/05/13 10:33:53;;;;;;;5.00;3.40;;;22.30;59.10;;;;;;5086092;28;20500;-77
2023/05/13 10:36:52;;;;;;;4.43;3.00;;;22.30;58.70;;;;;;5088106;28;20047;-77
2023/05/13 10:39:29;;;;;;;5.10;3.03;;;22.20;56.60;;;;;;5051726;28;20048;-78
2023/05/13 10:41:55;;;;;;;3.70;2.95;;;22.20;57.20;;;;;;5068519;28;20040;-78
2023/05/13 10:44:22;;;;;;;5.63;2.95;;;22.20;57.10;;;;;;5088958;28;20051;-78
2023/05/13 10:46:48;;;;;;;4.93;2.90;;;22.30;57.20;;;;;;5087737;28;20055;-79
2023/05/13 10:49:17;;;;;;;6.82;3.53;;;22.50;57.30;;;;;;5088300;28;20067;-78
2023/05/13 10:51:50;;;;;;;4.85;2.78;;;22.40;57.30;;;;;;5071009;28;20093;-78
2023/05/13 10:54:20;;;;;;;4.90;2.65;;;22.60;56.60;;;;;;5081754;28;20494;-79
2023/05/13 10:56:54;;;;;;;3.47;2.70;;;22.50;55.40;;;;;;5053753;28;20063;-79
2023/05/13 10:59:20;;;;;;;4.90;2.83;;;22.50;55.50;;;;;;5088057;28;20115;-78
2023/05/13 11:01:47;;;;;;;6.93;3.35;;;22.70;56.00;;;;;;5070694;28;20498;-78
2023/05/13 11:04:15;;;;;;;4.80;2.90;;;22.90;55.40;;;;;;5087825;28;20040;-78
2023/05/13 11:06:43;;;;;;;2.95;2.53;;;22.70;54.60;;;;;;5070504;28;20151;-78
2023/05/13 11:09:21;;;;;;;4.03;2.72;;;22.60;53.90;;;;;;5087211;28;20123;-78
2023/05/13 11:11:51;;;;;;;5.85;2.95;;;22.70;52.60;;;;;;5070213;28;20506;-77
2023/05/13 11:14:19;;;;;;;3.85;3.13;;;22.70;53.80;;;;;;5070321;28;20430;-78
2023/05/13 11:16:53;;;;;;;4.75;2.65;;;22.80;54.30;;;;;;5069027;28;20044;-78
2023/05/13 11:19:29;;;;;;;7.00;2.85;;;23.00;54.20;;;;;;5086268;28;20207;-79
2023/05/13 11:21:57;;;;;;;5.72;2.80;;;23.10;52.20;;;;;;5068975;28;20501;-78
2023/05/13 11:24:23;;;;;;;5.72;2.83;;;23.10;53.40;;;;;;5087401;28;20046;-78
2023/05/13 11:26:55;;;;;;;5.28;2.83;;;23.30;53.10;;;;;;5087462;28;20051;-79
2023/05/13 11:29:35;;;;;;;3.20;2.90;;;23.40;52.90;;;;;;5070081;28;20047;-78
2023/05/13 11:32:02;;;;;;;5.97;2.83;;;23.10;51.80;;;;;;5069958;28;20044;-79
2023/05/13 11:34:29;;;;;;;4.57;3.00;;;23.40;53.10;;;;;;5069174;28;20052;-79
2023/05/13 11:37:04;;;;;;;5.68;3.05;;;23.20;52.10;;;;;;5069198;28;20126;-78
2023/05/13 11:39:30;;;;;;;4.97;3.20;;;23.00;52.60;;;;;;5087582;28;20040;-79
2023/05/13 11:42:00;;;;;;;4.25;2.90;;;22.70;53.70;;;;;;5069526;28;20083;-77
2023/05/13 11:44:27;;;;;;;4.97;3.10;;;22.40;53.80;;;;;;5069461;28;20273;-77
2023/05/13 11:46:59;;;;;;;4.28;3.33;;;22.60;55.20;;;;;;5053399;28;20052;-77
2023/05/13 11:49:48;;;;;;;6.18;3.00;;;22.70;55.40;;;;;;5069624;28;20060;-78
2023/05/13 11:52:18;;;;;;;6.05;3.00;;;23.10;53.90;;;;;;5086821;28;20221;-78
2023/05/13 11:54:54;;;;;;;5.65;3.20;;;23.20;53.80;;;;;;5087584;28;20055;-78
2023/05/13 11:57:25;;;;;;;8.65;3.35;;;23.30;53.90;;;;;;5067894;28;20047;-78
2023/05/13 11:59:55;;;;;;;3.17;2.88;;;23.20;53.90;;;;;;5087534;28;20086;-78
2023/05/13 12:02:26;;;;;;;4.50;2.90;;;23.30;54.20;;;;;;5088245;28;20044;-78
2023/05/13 12:04:52;;;;;;;7.20;2.92;;;23.30;54.80;;;;;;5088266;28;20144;-78
2023/05/13 12:07:22;;;;;;;4.68;2.85;;;23.60;54.50;;;;;;5088286;28;20163;-78
2023/05/13 12:09:50;;;;;;;3.92;2.95;;;23.80;52.90;;;;;;5088122;28;20347;-77
2023/05/13 12:12:17;;;;;;;6.43;3.20;;;23.80;51.30;;;;;;5049636;28;20071;-78
2023/05/13 12:14:49;;;;;;;9.35;3.13;;;23.70;51.40;;;;;;5086275;28;20425;-78
2023/05/13 12:17:15;;;;;;;3.00;2.70;;;23.60;51.90;;;;;;5087248;28;20429;-77
2023/05/13 12:20:10;;;;;;;3.00;2.70;;;23.40;51.90;;;;;;5085991;28;20526;-78
2023/05/13 12:22:58;;;;;;;5.57;2.95;;;23.30;50.60;;;;;;5069931;28;20076;-77
2023/05/13 12:25:44;;;;;;;3.22;2.92;;;23.10;51.60;;;;;;5068181;28;20063;-79
2023/05/13 12:28:17;;;;;;;4.35;2.90;;;23.20;52.00;;;;;;5071576;28;20047;-79
2023/05/13 12:30:43;;;;;;;3.75;2.92;;;23.30;52.40;;;;;;5073041;28;20122;-79
2023/05/13 12:33:16;;;;;;;6.05;3.15;;;23.20;52.40;;;;;;5073475;28;20048;-79
2023/05/13 12:35:42;;;;;;;3.88;2.90;;;23.10;52.10;;;;;;5078157;28;20357;-79
2023/05/13 12:38:15;;;;;;;3.45;3.17;;;23.00;52.70;;;;;;5070323;28;20074;-79
2023/05/13 12:40:42;;;;;;;3.63;2.78;;;22.90;52.20;;;;;;5072221;28;20051;-79